createdAt,value
2017-12-06T00:02:37.079Z,7.90
2017-12-06T00:17:35.019Z,7.80
2017-12-06T00:32:35.386Z,8.30
2017-12-06T00:47:37.307Z,9.13
2017-12-06T01:02:35.098Z,7.93
2017-12-06T01:17:35.196Z,8.50
2017-12-06T01:32:37.628Z,8.47
2017-12-06T01:47:34.656Z,6.60
2017-12-06T02:02:36.449Z,7.67
2017-12-06T02:17:35.408Z,7.47
2017-12-06T02:32:36.751Z,6.13
2017-12-06T02:47:34.824Z,5.80
2017-12-06T03:02:34.670Z,6.50
2017-12-06T03:17:36.653Z,5.97
2017-12-06T03:32:36.511Z,5.70
2017-12-06T03:35:04.035Z,6.37
2017-12-06T03:37:31.581Z,6.23
2017-12-06T03:39:59.164Z,5.60
2017-12-06T03:42:26.685Z,6.00
2017-12-06T03:44:54.268Z,5.97
2017-12-06T03:47:22.583Z,5.70
2017-12-06T04:17:35.285Z,5.00
2017-12-06T04:32:38.193Z,5.47
2017-12-06T04:47:35.367Z,4.63
2017-12-06T05:02:37.118Z,5.17
2017-12-06T05:17:43.940Z,5.40
2017-12-06T05:32:38.188Z,5.77
2017-12-06T05:47:37.323Z,5.80
2017-12-06T06:02:35.221Z,6.03
2017-12-06T06:17:37.164Z,6.37
2017-12-06T06:32:34.570Z,6.63
2017-12-06T06:47:36.484Z,6.37
2017-12-06T07:02:38.413Z,4.80
2017-12-06T07:17:37.396Z,4.40
2017-12-06T07:32:36.340Z,4.07
2017-12-06T07:47:36.073Z,4.30
2017-12-06T08:02:35.604Z,4.43
2017-12-06T08:17:33.306Z,4.93
2017-12-06T08:32:34.176Z,4.07
2017-12-06T08:47:38.885Z,4.23
2017-12-06T09:02:45.826Z,4.70
2017-12-06T09:17:34.695Z,4.73
2017-12-06T09:32:37.164Z,5.03
2017-12-06T09:47:34.939Z,5.97
2017-12-06T10:02:37.326Z,5.27
2017-12-06T10:17:34.619Z,5.53
2017-12-06T10:32:37.034Z,4.70
2017-12-06T10:47:34.497Z,5.37
2017-12-06T11:02:35.083Z,4.10
2017-12-06T11:17:35.113Z,5.00
2017-12-06T11:32:36.410Z,5.07
2017-12-06T11:47:37.121Z,5.53
2017-12-06T12:02:35.265Z,5.90
2017-12-06T12:17:36.237Z,4.47
2017-12-06T12:32:34.621Z,4.73
2017-12-06T12:47:34.578Z,4.50
2017-12-06T13:02:34.715Z,4.23
2017-12-06T13:17:34.679Z,4.57
2017-12-06T13:32:36.746Z,5.70
2017-12-06T13:47:34.786Z,5.13
2017-12-06T14:02:33.914Z,4.83
2017-12-06T14:17:34.596Z,5.67
2017-12-06T14:32:37.226Z,5.90
2017-12-06T14:47:35.087Z,6.10
2017-12-06T15:02:35.239Z,5.00
2017-12-06T15:17:34.648Z,5.90
2017-12-06T15:32:35.140Z,6.60
2017-12-06T15:47:36.379Z,5.50
2017-12-06T16:02:34.326Z,6.23
2017-12-06T16:17:35.493Z,6.57
2017-12-06T16:32:36.848Z,6.13
2017-12-06T16:47:39.991Z,4.10
2017-12-06T17:02:41.206Z,5.10
2017-12-06T17:17:38.663Z,5.87
2017-12-06T17:32:36.589Z,5.30
2017-12-06T17:47:35.772Z,6.50
2017-12-06T18:02:36.279Z,11.43
2017-12-06T18:17:34.732Z,20.90
2017-12-06T18:32:37.766Z,27.87
2017-12-06T18:47:34.688Z,27.37
2017-12-06T19:02:36.732Z,22.87
2017-12-06T19:17:36.536Z,23.17
2017-12-06T19:32:36.919Z,42.00
2017-12-06T19:47:37.907Z,29.13
2017-12-06T20:02:36.353Z,21.43
2017-12-06T20:17:34.260Z,3.93
2017-12-06T20:32:35.131Z,5.60
2017-12-06T20:47:37.058Z,3.87
2017-12-06T21:02:36.840Z,3.80
2017-12-06T21:17:34.909Z,3.13
2017-12-06T21:32:34.636Z,2.93
2017-12-06T21:47:34.555Z,3.33
2017-12-06T22:02:34.459Z,2.73
2017-12-06T22:17:34.385Z,2.73
2017-12-06T22:32:33.274Z,2.50
2017-12-06T22:47:33.787Z,2.70
2017-12-06T23:02:33.667Z,2.27
2017-12-06T23:17:34.828Z,2.57
2017-12-06T23:32:34.016Z,2.00
2017-12-06T23:47:33.934Z,2.30
